sensor_id;sensor_type;location;lat;lon;timestamp;P1;durP1;ratioP1;P2;durP2;ratioP2
11955;SDS011;6038;52.276;10.530;2023-07-31T00:00:33;751.03;;;696.90;;
11955;SDS011;6038;52.276;10.530;2023-07-31T00:02:59;724.87;;;669.17;;
11955;SDS011;6038;52.276;10.530;2023-07-31T00:05:25;732.47;;;676.50;;
11955;SDS011;6038;52.276;10.530;2023-07-31T00:07:51;675.97;;;625.00;;
11955;SDS011;6038;52.276;10.530;2023-07-31T00:10:18;746.43;;;692.50;;
11955;SDS011;6038;52.276;10.530;2023-07-31T00:12:44;723.07;;;672.33;;
11955;SDS011;6038;52.276;10.530;2023-07-31T00:15:11;739.73;;;687.13;;
11955;SDS011;6038;52.276;10.530;2023-07-31T00:17:37;701.90;;;648.80;;
11955;SDS011;6038;52.276;10.530;2023-07-31T00:20:03;701.47;;;648.63;;
11955;SDS011;6038;52.276;10.530;2023-07-31T00:22:29;757.13;;;703.40;;
11955;SDS011;6038;52.276;10.530;2023-07-31T00:24:56;765.30;;;710.90;;
11955;SDS011;6038;52.276;10.530;2023-07-31T00:27:22;735.37;;;683.40;;
11955;SDS011;6038;52.276;10.530;2023-07-31T00:29:48;733.73;;;681.93;;
11955;SDS011;6038;52.276;10.530;2023-07-31T00:32:14;775.63;;;720.33;;
11955;SDS011;6038;52.276;10.530;2023-07-31T00:34:40;697.43;;;644.83;;
11955;SDS011;6038;52.276;10.530;2023-07-31T00:37:06;732.20;;;681.20;;
11955;SDS011;6038;52.276;10.530;2023-07-31T00:39:33;720.43;;;670.00;;
11955;SDS011;6038;52.276;10.530;2023-07-31T00:41:59;701.67;;;648.77;;
11955;SDS011;6038;52.276;10.530;2023-07-31T00:44:25;705.30;;;656.13;;
11955;SDS011;6038;52.276;10.530;2023-07-31T00:46:51;756.67;;;703.27;;
11955;SDS011;6038;52.276;10.530;2023-07-31T00:49:18;673.70;;;623.07;;
11955;SDS011;6038;52.276;10.530;2023-07-31T00:51:44;675.47;;;624.83;;
11955;SDS011;6038;52.276;10.530;2023-07-31T00:54:10;675.50;;;624.63;;
11955;SDS011;6038;52.276;10.530;2023-07-31T00:56:36;644.23;;;596.07;;
11955;SDS011;6038;52.276;10.530;2023-07-31T00:59:02;678.10;;;627.10;;
11955;SDS011;6038;52.276;10.530;2023-07-31T01:01:28;674.47;;;624.07;;
11955;SDS011;6038;52.276;10.530;2023-07-31T01:03:54;762.17;;;708.67;;
11955;SDS011;6038;52.276;10.530;2023-07-31T01:06:35;747.77;;;695.40;;
11955;SDS011;6038;52.276;10.530;2023-07-31T01:09:03;653.50;;;604.67;;
11955;SDS011;6038;52.276;10.530;2023-07-31T01:11:38;738.70;;;687.00;;
11955;SDS011;6038;52.276;10.530;2023-07-31T01:14:08;708.20;;;654.47;;
11955;SDS011;6038;52.276;10.530;2023-07-31T01:16:34;738.57;;;686.77;;
11955;SDS011;6038;52.276;10.530;2023-07-31T01:19:00;761.50;;;707.47;;
11955;SDS011;6038;52.276;10.530;2023-07-31T01:24:07;687.40;;;635.57;;
11955;SDS011;6038;52.276;10.530;2023-07-31T01:26:34;724.80;;;669.77;;
11955;SDS011;6038;52.276;10.530;2023-07-31T01:29:20;753.00;;;700.10;;
11955;SDS011;6038;52.276;10.530;2023-07-31T01:31:50;708.97;;;655.47;;
11955;SDS011;6038;52.276;10.530;2023-07-31T01:34:18;677.00;;;626.13;;
11955;SDS011;6038;52.276;10.530;2023-07-31T01:36:45;811.47;;;752.30;;
11955;SDS011;6038;52.276;10.530;2023-07-31T01:39:11;792.87;;;734.93;;
11955;SDS011;6038;52.276;10.530;2023-07-31T01:41:37;763.70;;;705.13;;
11955;SDS011;6038;52.276;10.530;2023-07-31T01:44:03;752.33;;;695.00;;
11955;SDS011;6038;52.276;10.530;2023-07-31T01:46:29;784.80;;;728.53;;
11955;SDS011;6038;52.276;10.530;2023-07-31T01:48:55;745.30;;;688.67;;
11955;SDS011;6038;52.276;10.530;2023-07-31T01:51:21;777.77;;;721.67;;
11955;SDS011;6038;52.276;10.530;2023-07-31T01:53:47;757.23;;;699.67;;
11955;SDS011;6038;52.276;10.530;2023-07-31T01:56:13;796.97;;;738.50;;
11955;SDS011;6038;52.276;10.530;2023-07-31T01:58:39;748.80;;;692.07;;
11955;SDS011;6038;52.276;10.530;2023-07-31T02:01:05;789.30;;;732.73;;
11955;SDS011;6038;52.276;10.530;2023-07-31T02:03:31;789.97;;;732.93;;
11955;SDS011;6038;52.276;10.530;2023-07-31T02:05:57;738.77;;;682.77;;
11955;SDS011;6038;52.276;10.530;2023-07-31T02:08:23;787.90;;;730.40;;
11955;SDS011;6038;52.276;10.530;2023-07-31T02:10:49;740.23;;;684.27;;
11955;SDS011;6038;52.276;10.530;2023-07-31T02:13:15;719.47;;;665.17;;
11955;SDS011;6038;52.276;10.530;2023-07-31T02:15:41;799.90;;;741.33;;
11955;SDS011;6038;52.276;10.530;2023-07-31T02:18:07;755.03;;;697.67;;
11955;SDS011;6038;52.276;10.530;2023-07-31T02:20:34;761.37;;;706.37;;
11955;SDS011;6038;52.276;10.530;2023-07-31T02:23:00;777.40;;;720.40;;
11955;SDS011;6038;52.276;10.530;2023-07-31T02:25:26;772.57;;;716.03;;
11955;SDS011;6038;52.276;10.530;2023-07-31T02:27:52;759.00;;;704.43;;
11955;SDS011;6038;52.276;10.530;2023-07-31T02:30:18;716.30;;;662.07;;
11955;SDS011;6038;52.276;10.530;2023-07-31T02:32:44;760.87;;;705.67;;
11955;SDS011;6038;52.276;10.530;2023-07-31T02:35:10;739.37;;;686.40;;
11955;SDS011;6038;52.276;10.530;2023-07-31T02:37:40;745.27;;;690.87;;
11955;SDS011;6038;52.276;10.530;2023-07-31T02:40:06;750.50;;;696.17;;
11955;SDS011;6038;52.276;10.530;2023-07-31T02:42:32;734.00;;;681.60;;
11955;SDS011;6038;52.276;10.530;2023-07-31T02:44:58;763.40;;;707.57;;
11955;SDS011;6038;52.276;10.530;2023-07-31T02:47:24;704.93;;;651.10;;
11955;SDS011;6038;52.276;10.530;2023-07-31T02:49:50;755.10;;;700.10;;
11955;SDS011;6038;52.276;10.530;2023-07-31T02:52:16;749.43;;;695.07;;
11955;SDS011;6038;52.276;10.530;2023-07-31T02:54:42;753.47;;;698.73;;
11955;SDS011;6038;52.276;10.530;2023-07-31T02:57:08;741.27;;;688.03;;
11955;SDS011;6038;52.276;10.530;2023-07-31T02:59:34;757.70;;;702.63;;
11955;SDS011;6038;52.276;10.530;2023-07-31T03:02:00;703.20;;;649.73;;
11955;SDS011;6038;52.276;10.530;2023-07-31T03:04:26;715.63;;;661.17;;
11955;SDS011;6038;52.276;10.530;2023-07-31T03:06:52;744.33;;;690.63;;
11955;SDS011;6038;52.276;10.530;2023-07-31T03:09:18;696.83;;;644.10;;
11955;SDS011;6038;52.276;10.530;2023-07-31T03:11:44;751.80;;;696.90;;
11955;SDS011;6038;52.276;10.530;2023-07-31T03:14:10;707.00;;;653.17;;
11955;SDS011;6038;52.276;10.530;2023-07-31T03:16:36;740.80;;;686.70;;
11955;SDS011;6038;52.276;10.530;2023-07-31T03:19:02;746.90;;;692.60;;
11955;SDS011;6038;52.276;10.530;2023-07-31T03:21:28;680.73;;;629.33;;
11955;SDS011;6038;52.276;10.530;2023-07-31T03:23:54;719.63;;;665.13;;
11955;SDS011;6038;52.276;10.530;2023-07-31T03:26:20;717.90;;;663.07;;
11955;SDS011;6038;52.276;10.530;2023-07-31T03:28:46;746.50;;;691.13;;
11955;SDS011;6038;52.276;10.530;2023-07-31T03:31:12;733.43;;;680.23;;
11955;SDS011;6038;52.276;10.530;2023-07-31T03:33:38;729.17;;;676.90;;
11955;SDS011;6038;52.276;10.530;2023-07-31T03:36:04;746.00;;;691.03;;
11955;SDS011;6038;52.276;10.530;2023-07-31T03:38:31;667.00;;;617.07;;
11955;SDS011;6038;52.276;10.530;2023-07-31T03:40:57;725.20;;;672.30;;
11955;SDS011;6038;52.276;10.530;2023-07-31T03:43:23;703.97;;;650.67;;
11955;SDS011;6038;52.276;10.530;2023-07-31T03:45:50;729.97;;;676.60;;
11955;SDS011;6038;52.276;10.530;2023-07-31T03:48:16;716.50;;;662.07;;
11955;SDS011;6038;52.276;10.530;2023-07-31T03:50:42;746.80;;;692.70;;
11955;SDS011;6038;52.276;10.530;2023-07-31T03:53:08;701.73;;;648.40;;
11955;SDS011;6038;52.276;10.530;2023-07-31T03:55:34;727.30;;;674.03;;
11955;SDS011;6038;52.276;10.530;2023-07-31T03:58:00;703.80;;;649.97;;
11955;SDS011;6038;52.276;10.530;2023-07-31T04:00:26;728.10;;;674.83;;
11955;SDS011;6038;52.276;10.530;2023-07-31T04:02:52;724.53;;;671.73;;
11955;SDS011;6038;52.276;10.530;2023-07-31T04:05:18;698.87;;;645.97;;
11955;SDS011;6038;52.276;10.530;2023-07-31T04:07:44;740.07;;;685.23;;
11955;SDS011;6038;52.276;10.530;2023-07-31T04:10:10;737.57;;;683.67;;
11955;SDS011;6038;52.276;10.530;2023-07-31T04:12:36;711.30;;;657.47;;
11955;SDS011;6038;52.276;10.530;2023-07-31T04:15:02;747.20;;;690.80;;
11955;SDS011;6038;52.276;10.530;2023-07-31T04:17:28;712.80;;;658.37;;
11955;SDS011;6038;52.276;10.530;2023-07-31T04:19:54;729.67;;;676.23;;
11955;SDS011;6038;52.276;10.530;2023-07-31T04:22:20;687.53;;;635.33;;
11955;SDS011;6038;52.276;10.530;2023-07-31T04:24:46;730.70;;;674.30;;
11955;SDS011;6038;52.276;10.530;2023-07-31T04:27:12;739.00;;;682.33;;
11955;SDS011;6038;52.276;10.530;2023-07-31T04:29:38;727.53;;;671.53;;
11955;SDS011;6038;52.276;10.530;2023-07-31T04:32:07;727.43;;;673.97;;
11955;SDS011;6038;52.276;10.530;2023-07-31T04:34:33;739.10;;;682.93;;
11955;SDS011;6038;52.276;10.530;2023-07-31T04:36:59;743.80;;;687.57;;
11955;SDS011;6038;52.276;10.530;2023-07-31T04:39:25;720.57;;;667.83;;
11955;SDS011;6038;52.276;10.530;2023-07-31T04:41:51;733.47;;;677.80;;
11955;SDS011;6038;52.276;10.530;2023-07-31T04:44:17;730.33;;;676.23;;
11955;SDS011;6038;52.276;10.530;2023-07-31T04:46:43;734.83;;;678.93;;
11955;SDS011;6038;52.276;10.530;2023-07-31T04:49:09;720.47;;;667.17;;
11955;SDS011;6038;52.276;10.530;2023-07-31T04:51:34;734.47;;;678.67;;
11955;SDS011;6038;52.276;10.530;2023-07-31T04:54:00;718.57;;;665.00;;
11955;SDS011;6038;52.276;10.530;2023-07-31T04:56:26;720.13;;;667.03;;
11955;SDS011;6038;52.276;10.530;2023-07-31T04:58:52;727.83;;;672.63;;
11955;SDS011;6038;52.276;10.530;2023-07-31T05:01:18;715.77;;;662.47;;
11955;SDS011;6038;52.276;10.530;2023-07-31T05:03:44;729.10;;;673.53;;
11955;SDS011;6038;52.276;10.530;2023-07-31T05:06:10;723.53;;;668.13;;
11955;SDS011;6038;52.276;10.530;2023-07-31T05:08:37;693.13;;;639.93;;
11955;SDS011;6038;52.276;10.530;2023-07-31T05:11:03;730.30;;;673.77;;
11955;SDS011;6038;52.276;10.530;2023-07-31T05:13:29;720.03;;;664.73;;
11955;SDS011;6038;52.276;10.530;2023-07-31T05:15:55;707.03;;;653.33;;
11955;SDS011;6038;52.276;10.530;2023-07-31T05:18:21;712.07;;;657.27;;
11955;SDS011;6038;52.276;10.530;2023-07-31T05:20:47;712.03;;;658.03;;
11955;SDS011;6038;52.276;10.530;2023-07-31T05:23:13;717.60;;;662.67;;
11955;SDS011;6038;52.276;10.530;2023-07-31T05:25:39;697.03;;;643.20;;
11955;SDS011;6038;52.276;10.530;2023-07-31T05:28:05;706.97;;;653.30;;
11955;SDS011;6038;52.276;10.530;2023-07-31T05:30:31;704.90;;;651.90;;
11955;SDS011;6038;52.276;10.530;2023-07-31T05:32:57;701.17;;;647.17;;
11955;SDS011;6038;52.276;10.530;2023-07-31T05:35:23;679.20;;;627.50;;
11955;SDS011;6038;52.276;10.530;2023-07-31T05:37:49;703.23;;;648.43;;
11955;SDS011;6038;52.276;10.530;2023-07-31T05:40:15;696.27;;;642.53;;
11955;SDS011;6038;52.276;10.530;2023-07-31T05:42:41;708.17;;;653.83;;
11955;SDS011;6038;52.276;10.530;2023-07-31T05:45:07;698.80;;;645.03;;
11955;SDS011;6038;52.276;10.530;2023-07-31T05:47:33;705.83;;;650.87;;
11955;SDS011;6038;52.276;10.530;2023-07-31T05:49:59;713.23;;;658.53;;
11955;SDS011;6038;52.276;10.530;2023-07-31T05:52:25;712.27;;;657.77;;
11955;SDS011;6038;52.276;10.530;2023-07-31T05:54:51;696.40;;;642.80;;
11955;SDS011;6038;52.276;10.530;2023-07-31T05:57:17;716.50;;;662.10;;
11955;SDS011;6038;52.276;10.530;2023-07-31T05:59:43;712.20;;;658.10;;
11955;SDS011;6038;52.276;10.530;2023-07-31T06:02:09;720.30;;;664.47;;
11955;SDS011;6038;52.276;10.530;2023-07-31T06:04:35;718.37;;;663.77;;
11955;SDS011;6038;52.276;10.530;2023-07-31T06:07:01;714.03;;;658.03;;
11955;SDS011;6038;52.276;10.530;2023-07-31T06:09:28;724.53;;;668.80;;
11955;SDS011;6038;52.276;10.530;2023-07-31T06:11:54;724.03;;;667.80;;
11955;SDS011;6038;52.276;10.530;2023-07-31T06:14:20;726.97;;;670.30;;
11955;SDS011;6038;52.276;10.530;2023-07-31T06:16:46;731.03;;;674.03;;
11955;SDS011;6038;52.276;10.530;2023-07-31T06:19:12;714.20;;;659.10;;
11955;SDS011;6038;52.276;10.530;2023-07-31T06:21:38;693.63;;;640.33;;
11955;SDS011;6038;52.276;10.530;2023-07-31T06:24:07;712.63;;;658.63;;
11955;SDS011;6038;52.276;10.530;2023-07-31T06:26:33;720.97;;;665.40;;
11955;SDS011;6038;52.276;10.530;2023-07-31T06:28:59;750.73;;;692.33;;
11955;SDS011;6038;52.276;10.530;2023-07-31T06:31:25;762.00;;;705.23;;
11955;SDS011;6038;52.276;10.530;2023-07-31T06:33:51;758.70;;;700.43;;
11955;SDS011;6038;52.276;10.530;2023-07-31T06:36:18;762.77;;;705.17;;
11955;SDS011;6038;52.276;10.530;2023-07-31T06:38:44;758.87;;;702.07;;
11955;SDS011;6038;52.276;10.530;2023-07-31T06:41:10;758.87;;;702.10;;
11955;SDS011;6038;52.276;10.530;2023-07-31T06:43:36;776.17;;;716.87;;
11955;SDS011;6038;52.276;10.530;2023-07-31T06:46:05;783.67;;;723.40;;
11955;SDS011;6038;52.276;10.530;2023-07-31T06:48:32;775.93;;;717.27;;
11955;SDS011;6038;52.276;10.530;2023-07-31T06:50:58;767.57;;;711.03;;
11955;SDS011;6038;52.276;10.530;2023-07-31T06:53:24;751.57;;;693.80;;
11955;SDS011;6038;52.276;10.530;2023-07-31T06:55:50;773.80;;;716.03;;
11955;SDS011;6038;52.276;10.530;2023-07-31T06:58:16;781.93;;;724.00;;
11955;SDS011;6038;52.276;10.530;2023-07-31T07:00:42;780.60;;;723.00;;
11955;SDS011;6038;52.276;10.530;2023-07-31T07:03:09;798.33;;;737.47;;
11955;SDS011;6038;52.276;10.530;2023-07-31T07:05:35;760.93;;;702.00;;
11955;SDS011;6038;52.276;10.530;2023-07-31T07:08:01;787.87;;;726.63;;
11955;SDS011;6038;52.276;10.530;2023-07-31T07:10:27;786.70;;;725.30;;
11955;SDS011;6038;52.276;10.530;2023-07-31T07:12:53;800.43;;;740.03;;
11955;SDS011;6038;52.276;10.530;2023-07-31T07:15:20;819.83;;;755.07;;
11955;SDS011;6038;52.276;10.530;2023-07-31T07:17:46;819.70;;;756.73;;
11955;SDS011;6038;52.276;10.530;2023-07-31T07:20:12;807.03;;;745.57;;
11955;SDS011;6038;52.276;10.530;2023-07-31T07:22:38;798.13;;;737.07;;
11955;SDS011;6038;52.276;10.530;2023-07-31T07:25:05;814.33;;;751.43;;
11955;SDS011;6038;52.276;10.530;2023-07-31T07:27:32;785.77;;;723.97;;
11955;SDS011;6038;52.276;10.530;2023-07-31T07:29:58;805.40;;;743.77;;
11955;SDS011;6038;52.276;10.530;2023-07-31T07:32:24;804.23;;;740.20;;
11955;SDS011;6038;52.276;10.530;2023-07-31T07:34:50;797.47;;;733.80;;
11955;SDS011;6038;52.276;10.530;2023-07-31T07:37:16;779.10;;;717.70;;
11955;SDS011;6038;52.276;10.530;2023-07-31T07:39:43;803.97;;;742.57;;
11955;SDS011;6038;52.276;10.530;2023-07-31T07:42:09;812.00;;;748.63;;
11955;SDS011;6038;52.276;10.530;2023-07-31T07:44:35;796.80;;;733.97;;
11955;SDS011;6038;52.276;10.530;2023-07-31T07:47:01;780.83;;;719.27;;
11955;SDS011;6038;52.276;10.530;2023-07-31T07:49:27;804.67;;;742.80;;
11955;SDS011;6038;52.276;10.530;2023-07-31T07:51:53;768.27;;;708.40;;
11955;SDS011;6038;52.276;10.530;2023-07-31T07:54:19;789.63;;;727.53;;
11955;SDS011;6038;52.276;10.530;2023-07-31T07:56:46;797.00;;;733.73;;
11955;SDS011;6038;52.276;10.530;2023-07-31T07:59:12;801.23;;;740.43;;
11955;SDS011;6038;52.276;10.530;2023-07-31T08:01:38;799.50;;;739.50;;
11955;SDS011;6038;52.276;10.530;2023-07-31T08:04:04;809.50;;;747.00;;
11955;SDS011;6038;52.276;10.530;2023-07-31T08:06:30;790.37;;;728.37;;
11955;SDS011;6038;52.276;10.530;2023-07-31T08:08:56;766.97;;;707.07;;
11955;SDS011;6038;52.276;10.530;2023-07-31T08:11:22;779.20;;;718.37;;
11955;SDS011;6038;52.276;10.530;2023-07-31T08:13:48;817.73;;;755.03;;
11955;SDS011;6038;52.276;10.530;2023-07-31T08:16:14;819.23;;;757.00;;
11955;SDS011;6038;52.276;10.530;2023-07-31T08:18:40;805.43;;;744.33;;
11955;SDS011;6038;52.276;10.530;2023-07-31T08:21:07;820.90;;;758.80;;
11955;SDS011;6038;52.276;10.530;2023-07-31T08:23:34;827.23;;;763.77;;
11955;SDS011;6038;52.276;10.530;2023-07-31T08:26:00;812.23;;;748.33;;
11955;SDS011;6038;52.276;10.530;2023-07-31T08:28:25;833.10;;;770.03;;
11955;SDS011;6038;52.276;10.530;2023-07-31T08:30:51;817.03;;;752.77;;
11955;SDS011;6038;52.276;10.530;2023-07-31T08:33:17;859.37;;;793.97;;
11955;SDS011;6038;52.276;10.530;2023-07-31T08:35:43;857.60;;;791.90;;
11955;SDS011;6038;52.276;10.530;2023-07-31T08:38:11;837.83;;;771.80;;
11955;SDS011;6038;52.276;10.530;2023-07-31T08:40:37;833.93;;;768.77;;
11955;SDS011;6038;52.276;10.530;2023-07-31T08:43:04;825.67;;;760.97;;
11955;SDS011;6038;52.276;10.530;2023-07-31T08:45:30;824.73;;;761.03;;
11955;SDS011;6038;52.276;10.530;2023-07-31T08:47:56;851.03;;;785.97;;
11955;SDS011;6038;52.276;10.530;2023-07-31T08:50:22;839.50;;;777.27;;
11955;SDS011;6038;52.276;10.530;2023-07-31T08:52:49;835.10;;;769.53;;
11955;SDS011;6038;52.276;10.530;2023-07-31T08:55:16;833.73;;;768.07;;
11955;SDS011;6038;52.276;10.530;2023-07-31T08:57:42;820.73;;;756.73;;
11955;SDS011;6038;52.276;10.530;2023-07-31T09:00:09;825.67;;;761.20;;
11955;SDS011;6038;52.276;10.530;2023-07-31T09:02:45;831.03;;;765.50;;
11955;SDS011;6038;52.276;10.530;2023-07-31T09:05:11;852.17;;;786.83;;
11955;SDS011;6038;52.276;10.530;2023-07-31T09:07:37;820.10;;;756.00;;
11955;SDS011;6038;52.276;10.530;2023-07-31T09:10:04;820.20;;;755.93;;
11955;SDS011;6038;52.276;10.530;2023-07-31T09:12:30;828.97;;;763.23;;
11955;SDS011;6038;52.276;10.530;2023-07-31T09:14:56;856.13;;;790.17;;
11955;SDS011;6038;52.276;10.530;2023-07-31T09:17:29;814.47;;;751.07;;
11955;SDS011;6038;52.276;10.530;2023-07-31T09:19:56;821.33;;;756.20;;
11955;SDS011;6038;52.276;10.530;2023-07-31T09:22:34;845.10;;;781.23;;
11955;SDS011;6038;52.276;10.530;2023-07-31T09:25:04;846.30;;;782.20;;
11955;SDS011;6038;52.276;10.530;2023-07-31T09:27:47;839.47;;;772.73;;
11955;SDS011;6038;52.276;10.530;2023-07-31T09:30:13;866.00;;;800.13;;
11955;SDS011;6038;52.276;10.530;2023-07-31T09:32:39;854.10;;;786.60;;
11955;SDS011;6038;52.276;10.530;2023-07-31T09:35:21;869.33;;;803.57;;
11955;SDS011;6038;52.276;10.530;2023-07-31T09:37:51;853.40;;;790.70;;
11955;SDS011;6038;52.276;10.530;2023-07-31T09:40:30;856.30;;;793.00;;
11955;SDS011;6038;52.276;10.530;2023-07-31T09:42:58;833.93;;;772.53;;
11955;SDS011;6038;52.276;10.530;2023-07-31T09:45:24;814.40;;;751.80;;
11955;SDS011;6038;52.276;10.530;2023-07-31T09:47:50;813.07;;;749.90;;
11955;SDS011;6038;52.276;10.530;2023-07-31T09:50:17;805.33;;;743.13;;
11955;SDS011;6038;52.276;10.530;2023-07-31T09:52:43;799.27;;;737.50;;
11955;SDS011;6038;52.276;10.530;2023-07-31T09:55:09;830.70;;;769.00;;
11955;SDS011;6038;52.276;10.530;2023-07-31T09:57:43;845.73;;;783.10;;
11955;SDS011;6038;52.276;10.530;2023-07-31T10:00:10;845.30;;;782.87;;
11955;SDS011;6038;52.276;10.530;2023-07-31T10:02:36;830.00;;;768.73;;
11955;SDS011;6038;52.276;10.530;2023-07-31T10:05:03;824.90;;;764.67;;
11955;SDS011;6038;52.276;10.530;2023-07-31T10:07:29;823.80;;;763.20;;
11955;SDS011;6038;52.276;10.530;2023-07-31T10:09:57;820.70;;;760.53;;
11955;SDS011;6038;52.276;10.530;2023-07-31T10:12:25;830.80;;;769.73;;
11955;SDS011;6038;52.276;10.530;2023-07-31T10:14:54;837.83;;;775.77;;
11955;SDS011;6038;52.276;10.530;2023-07-31T10:17:21;842.27;;;779.27;;
11955;SDS011;6038;52.276;10.530;2023-07-31T10:19:47;818.47;;;755.27;;
11955;SDS011;6038;52.276;10.530;2023-07-31T10:22:14;827.37;;;762.70;;
11955;SDS011;6038;52.276;10.530;2023-07-31T10:24:40;842.17;;;780.57;;
11955;SDS011;6038;52.276;10.530;2023-07-31T10:27:08;846.70;;;784.80;;
11955;SDS011;6038;52.276;10.530;2023-07-31T10:29:36;841.67;;;776.83;;
11955;SDS011;6038;52.276;10.530;2023-07-31T10:32:02;859.83;;;797.00;;
11955;SDS011;6038;52.276;10.530;2023-07-31T10:34:31;815.33;;;752.83;;
11955;SDS011;6038;52.276;10.530;2023-07-31T10:39:42;870.30;;;802.65;;
11955;SDS011;6038;52.276;10.530;2023-07-31T10:42:14;881.47;;;813.00;;
11955;SDS011;6038;52.276;10.530;2023-07-31T10:44:43;928.07;;;857.77;;
11955;SDS011;6038;52.276;10.530;2023-07-31T10:47:10;903.40;;;832.43;;
11955;SDS011;6038;52.276;10.530;2023-07-31T10:49:36;948.20;;;872.77;;
11955;SDS011;6038;52.276;10.530;2023-07-31T10:52:04;943.40;;;871.90;;
11955;SDS011;6038;52.276;10.530;2023-07-31T10:54:30;905.50;;;834.60;;
11955;SDS011;6038;52.276;10.530;2023-07-31T10:56:56;951.50;;;878.03;;
11955;SDS011;6038;52.276;10.530;2023-07-31T10:59:26;939.92;;;869.90;;
11955;SDS011;6038;52.276;10.530;2023-07-31T11:01:53;950.63;;;877.10;;
11955;SDS011;6038;52.276;10.530;2023-07-31T11:04:23;917.13;;;844.67;;
11955;SDS011;6038;52.276;10.530;2023-07-31T11:06:59;941.10;;;870.67;;
11955;SDS011;6038;52.276;10.530;2023-07-31T11:09:31;871.25;;;804.00;;
11955;SDS011;6038;52.276;10.530;2023-07-31T11:11:58;897.80;;;827.85;;
11955;SDS011;6038;52.276;10.530;2023-07-31T11:14:24;943.65;;;873.22;;
11955;SDS011;6038;52.276;10.530;2023-07-31T11:16:51;982.70;;;908.28;;
11955;SDS011;6038;52.276;10.530;2023-07-31T11:19:23;956.95;;;881.22;;
11955;SDS011;6038;52.276;10.530;2023-07-31T11:21:50;990.60;;;915.78;;
11955;SDS011;6038;52.276;10.530;2023-07-31T11:24:17;968.17;;;891.38;;
11955;SDS011;6038;52.276;10.530;2023-07-31T11:26:48;1012.25;;;934.67;;
11955;SDS011;6038;52.276;10.530;2023-07-31T11:29:15;1002.25;;;923.05;;
11955;SDS011;6038;52.276;10.530;2023-07-31T11:31:44;1007.85;;;927.55;;
11955;SDS011;6038;52.276;10.530;2023-07-31T11:34:10;1010.35;;;930.22;;
11955;SDS011;6038;52.276;10.530;2023-07-31T11:36:36;1050.20;;;969.47;;
11955;SDS011;6038;52.276;10.530;2023-07-31T11:39:05;988.60;;;910.70;;
11955;SDS011;6038;52.276;10.530;2023-07-31T11:41:31;993.72;;;915.00;;
11955;SDS011;6038;52.276;10.530;2023-07-31T11:44:00;995.25;;;916.65;;
11955;SDS011;6038;52.276;10.530;2023-07-31T11:46:27;1011.80;;;935.00;;
11955;SDS011;6038;52.276;10.530;2023-07-31T11:48:58;1029.72;;;951.38;;
11955;SDS011;6038;52.276;10.530;2023-07-31T11:51:24;997.33;;;921.97;;
11955;SDS011;6038;52.276;10.530;2023-07-31T11:53:52;959.40;;;883.92;;
11955;SDS011;6038;52.276;10.530;2023-07-31T11:56:19;1016.15;;;939.05;;
11955;SDS011;6038;52.276;10.530;2023-07-31T11:58:48;998.90;;;923.70;;
11955;SDS011;6038;52.276;10.530;2023-07-31T12:01:21;994.25;;;919.17;;
11955;SDS011;6038;52.276;10.530;2023-07-31T12:03:47;962.25;;;886.58;;
11955;SDS011;6038;52.276;10.530;2023-07-31T12:06:13;961.17;;;885.83;;
11955;SDS011;6038;52.276;10.530;2023-07-31T12:08:39;994.53;;;919.92;;
11955;SDS011;6038;52.276;10.530;2023-07-31T12:11:06;948.92;;;874.72;;
11955;SDS011;6038;52.276;10.530;2023-07-31T12:13:32;983.30;;;909.78;;
11955;SDS011;6038;52.276;10.530;2023-07-31T12:16:02;987.75;;;913.67;;
11955;SDS011;6038;52.276;10.530;2023-07-31T12:18:29;979.00;;;905.75;;
11955;SDS011;6038;52.276;10.530;2023-07-31T12:23:22;950.47;;;875.85;;
11955;SDS011;6038;52.276;10.530;2023-07-31T12:26:08;957.10;;;881.58;;
11955;SDS011;6038;52.276;10.530;2023-07-31T12:28:35;916.65;;;845.15;;
11955;SDS011;6038;52.276;10.530;2023-07-31T12:31:01;949.83;;;875.47;;
11955;SDS011;6038;52.276;10.530;2023-07-31T12:33:35;918.63;;;847.17;;
11955;SDS011;6038;52.276;10.530;2023-07-31T12:36:07;975.85;;;902.78;;
11955;SDS011;6038;52.276;10.530;2023-07-31T12:38:33;972.33;;;900.10;;
11955;SDS011;6038;52.276;10.530;2023-07-31T12:40:59;902.58;;;832.50;;
11955;SDS011;6038;52.276;10.530;2023-07-31T12:43:26;891.47;;;822.50;;
11955;SDS011;6038;52.276;10.530;2023-07-31T12:45:53;926.92;;;854.95;;
11955;SDS011;6038;52.276;10.530;2023-07-31T12:48:19;906.28;;;836.50;;
11955;SDS011;6038;52.276;10.530;2023-07-31T12:50:45;906.63;;;835.95;;
11955;SDS011;6038;52.276;10.530;2023-07-31T12:53:11;911.78;;;841.05;;
11955;SDS011;6038;52.276;10.530;2023-07-31T12:55:37;944.88;;;874.80;;
11955;SDS011;6038;52.276;10.530;2023-07-31T12:58:03;977.45;;;904.47;;
11955;SDS011;6038;52.276;10.530;2023-07-31T13:00:29;906.67;;;836.42;;
11955;SDS011;6038;52.276;10.530;2023-07-31T13:02:55;936.03;;;862.97;;
11955;SDS011;6038;52.276;10.530;2023-07-31T13:05:21;975.72;;;902.85;;
11955;SDS011;6038;52.276;10.530;2023-07-31T13:07:47;942.42;;;872.72;;
11955;SDS011;6038;52.276;10.530;2023-07-31T13:10:13;957.63;;;886.67;;
11955;SDS011;6038;52.276;10.530;2023-07-31T13:12:39;914.97;;;844.00;;
11955;SDS011;6038;52.276;10.530;2023-07-31T13:15:06;974.33;;;901.70;;
11955;SDS011;6038;52.276;10.530;2023-07-31T13:17:32;931.58;;;859.17;;
11955;SDS011;6038;52.276;10.530;2023-07-31T13:19:58;958.08;;;887.10;;
11955;SDS011;6038;52.276;10.530;2023-07-31T13:22:25;898.70;;;829.25;;
11955;SDS011;6038;52.276;10.530;2023-07-31T13:24:51;885.67;;;817.03;;
11955;SDS011;6038;52.276;10.530;2023-07-31T13:27:17;889.45;;;820.38;;
11955;SDS011;6038;52.276;10.530;2023-07-31T13:29:45;970.75;;;898.90;;
11955;SDS011;6038;52.276;10.530;2023-07-31T13:32:11;952.07;;;881.87;;
11955;SDS011;6038;52.276;10.530;2023-07-31T13:34:37;907.35;;;836.92;;
11955;SDS011;6038;52.276;10.530;2023-07-31T13:37:04;959.10;;;887.90;;
11955;SDS011;6038;52.276;10.530;2023-07-31T13:39:32;944.75;;;870.78;;
11955;SDS011;6038;52.276;10.530;2023-07-31T13:41:59;1004.60;;;928.67;;
11955;SDS011;6038;52.276;10.530;2023-07-31T13:44:25;1000.40;;;925.20;;
11955;SDS011;6038;52.276;10.530;2023-07-31T13:46:51;1007.08;;;931.22;;
11955;SDS011;6038;52.276;10.530;2023-07-31T13:49:17;959.90;;;884.70;;
11955;SDS011;6038;52.276;10.530;2023-07-31T13:51:43;986.13;;;912.72;;
11955;SDS011;6038;52.276;10.530;2023-07-31T13:54:09;978.53;;;901.40;;
11955;SDS011;6038;52.276;10.530;2023-07-31T13:56:40;1005.35;;;929.30;;
11955;SDS011;6038;52.276;10.530;2023-07-31T13:59:06;985.13;;;907.33;;
11955;SDS011;6038;52.276;10.530;2023-07-31T14:01:32;1017.97;;;940.72;;